createdAt,value
2022-08-21T00:02:16.985Z,25.10
2022-08-21T00:04:48.431Z,25.11
2022-08-21T00:07:28.120Z,25.00
2022-08-21T00:09:57.930Z,24.98
2022-08-21T00:12:28.716Z,24.96
2022-08-21T00:14:58.088Z,25.10
2022-08-21T00:17:27.522Z,24.48
2022-08-21T00:19:56.748Z,24.44
2022-08-21T00:22:25.700Z,24.69
2022-08-21T00:24:54.749Z,24.99
2022-08-21T00:27:24.206Z,25.00
2022-08-21T00:29:56.353Z,25.00
2022-08-21T00:32:28.077Z,24.94
2022-08-21T00:34:57.322Z,24.91
2022-08-21T00:37:26.640Z,24.94
2022-08-21T00:39:55.808Z,24.94
2022-08-21T00:42:25.246Z,24.99
2022-08-21T00:44:55.974Z,24.97
2022-08-21T00:47:25.142Z,25.03
2022-08-21T00:49:54.222Z,25.13
2022-08-21T00:52:27.486Z,25.20
2022-08-21T00:54:58.950Z,25.19
2022-08-21T00:57:32.518Z,25.21
2022-08-21T01:00:09.584Z,25.27
2022-08-21T01:02:39.021Z,25.12
2022-08-21T01:05:09.185Z,25.16
2022-08-21T01:07:39.517Z,24.98
2022-08-21T01:10:20.608Z,25.02
2022-08-21T01:12:56.081Z,25.06
2022-08-21T01:15:32.526Z,25.17
2022-08-21T01:18:02.072Z,25.06
2022-08-21T01:20:32.513Z,25.04
2022-08-21T01:23:04.341Z,25.15
2022-08-21T01:25:35.250Z,25.16
2022-08-21T01:28:11.411Z,24.96
2022-08-21T01:30:43.104Z,24.77
2022-08-21T01:33:12.921Z,24.80
2022-08-21T01:35:42.222Z,24.69
2022-08-21T01:38:13.294Z,24.81
2022-08-21T01:40:42.382Z,24.96
2022-08-21T01:43:11.830Z,25.04
2022-08-21T01:45:40.834Z,24.88
2022-08-21T01:48:10.212Z,24.66
2022-08-21T01:50:39.730Z,24.67
2022-08-21T01:53:08.967Z,24.72
2022-08-21T01:55:39.404Z,24.79
2022-08-21T01:58:10.298Z,24.65
2022-08-21T02:00:39.491Z,24.61
2022-08-21T02:03:09.749Z,24.47
2022-08-21T02:05:38.796Z,24.58
2022-08-21T02:08:09.702Z,24.56
2022-08-21T02:10:42.083Z,24.60
2022-08-21T02:13:18.504Z,24.70
2022-08-21T02:15:47.940Z,24.78
2022-08-21T02:18:17.249Z,24.75
2022-08-21T02:20:56.367Z,24.59
2022-08-21T02:23:27.672Z,24.64
2022-08-21T02:25:59.864Z,24.51
2022-08-21T02:28:29.605Z,24.66
2022-08-21T02:30:59.426Z,24.61
2022-08-21T02:33:29.776Z,24.26
2022-08-21T02:35:59.739Z,24.46
2022-08-21T02:38:31.779Z,24.36
2022-08-21T02:41:02.909Z,24.50
2022-08-21T02:43:32.386Z,24.68
2022-08-21T02:46:01.790Z,24.56
2022-08-21T02:48:33.456Z,24.52
2022-08-21T02:51:04.706Z,24.34
2022-08-21T02:53:35.366Z,24.36
2022-08-21T02:56:08.774Z,24.35
2022-08-21T02:58:41.349Z,24.40
2022-08-21T03:01:11.943Z,24.17
2022-08-21T03:03:43.631Z,24.20
2022-08-21T03:06:15.473Z,24.29
2022-08-21T03:08:46.358Z,24.22
2022-08-21T03:16:21.747Z,24.34
2022-08-21T03:18:51.157Z,24.33
2022-08-21T03:21:21.014Z,24.45
2022-08-21T03:23:50.156Z,24.44
2022-08-21T03:26:19.864Z,24.51
2022-08-21T03:28:48.852Z,24.40
2022-08-21T03:31:19.415Z,24.49
2022-08-21T03:33:48.721Z,24.33
2022-08-21T03:36:18.996Z,24.38
2022-08-21T03:38:48.141Z,24.48
2022-08-21T03:41:17.431Z,24.66
2022-08-21T03:43:46.540Z,24.58
2022-08-21T03:46:15.768Z,24.63
2022-08-21T03:48:47.092Z,24.84
2022-08-21T03:51:16.543Z,24.77
2022-08-21T03:53:45.938Z,24.55
2022-08-21T03:56:17.044Z,24.54
2022-08-21T03:58:46.813Z,24.49
2022-08-21T04:01:16.172Z,24.62
2022-08-21T04:03:46.793Z,24.59
2022-08-21T04:06:15.949Z,24.43
2022-08-21T04:08:45.156Z,24.42
2022-08-21T04:11:15.791Z,24.47
2022-08-21T04:13:45.093Z,24.30
2022-08-21T04:16:14.835Z,24.48
2022-08-21T04:18:45.673Z,24.51
2022-08-21T04:21:15.137Z,24.42
2022-08-21T04:23:44.653Z,24.48
2022-08-21T04:26:13.897Z,24.33
2022-08-21T04:28:43.558Z,24.44
2022-08-21T04:31:14.043Z,24.45
2022-08-21T04:33:43.317Z,24.54
2022-08-21T04:36:14.421Z,24.24
2022-08-21T04:38:44.597Z,24.34
2022-08-21T04:41:14.848Z,24.49
2022-08-21T04:43:44.528Z,24.70
2022-08-21T04:46:14.021Z,24.76
2022-08-21T04:48:43.323Z,24.70
2022-08-21T04:51:18.202Z,24.90
2022-08-21T04:53:50.711Z,24.93
2022-08-21T04:56:24.058Z,24.77
2022-08-21T04:58:55.001Z,24.83
2022-08-21T05:01:27.862Z,25.10
2022-08-21T05:04:00.513Z,25.12
2022-08-21T05:06:33.680Z,25.16
2022-08-21T05:09:03.692Z,25.07
2022-08-21T05:11:33.396Z,24.99
2022-08-21T05:14:02.832Z,24.90
2022-08-21T05:16:37.267Z,24.95
2022-08-21T05:19:08.387Z,24.88
2022-08-21T05:21:44.515Z,25.02
2022-08-21T05:24:14.226Z,25.08
2022-08-21T05:26:46.144Z,25.02
2022-08-21T05:29:18.277Z,24.87
2022-08-21T05:31:48.949Z,24.95
2022-08-21T05:34:22.277Z,25.08
2022-08-21T05:36:53.170Z,25.17
2022-08-21T05:39:22.699Z,25.26
2022-08-21T05:41:51.751Z,25.29
2022-08-21T05:44:20.777Z,25.07
2022-08-21T05:46:52.477Z,25.21
2022-08-21T05:49:21.652Z,25.11
2022-08-21T05:51:52.106Z,24.95
2022-08-21T05:54:21.648Z,24.73
2022-08-21T05:56:50.727Z,24.97
2022-08-21T05:59:19.823Z,25.16
2022-08-21T06:01:49.468Z,25.14
2022-08-21T06:04:18.682Z,25.14
2022-08-21T06:06:48.422Z,25.30
2022-08-21T06:09:19.352Z,25.18
2022-08-21T06:11:48.489Z,25.42
2022-08-21T06:14:18.092Z,25.50
2022-08-21T06:16:47.315Z,25.30
2022-08-21T06:19:16.298Z,25.14
2022-08-21T06:21:45.350Z,25.24
2022-08-21T06:24:15.051Z,25.40
2022-08-21T06:26:45.310Z,25.14
2022-08-21T06:29:17.999Z,25.20
2022-08-21T06:31:47.802Z,25.42
2022-08-21T06:34:17.787Z,25.41
2022-08-21T06:36:47.186Z,25.49
2022-08-21T06:39:24.974Z,25.17
2022-08-21T06:42:01.293Z,25.15
2022-08-21T06:44:33.008Z,25.20
2022-08-21T06:47:02.455Z,25.32
2022-08-21T06:49:31.497Z,25.19
2022-08-21T06:52:02.843Z,25.14
2022-08-21T06:54:32.653Z,25.11
2022-08-21T06:57:03.113Z,24.94
2022-08-21T06:59:32.933Z,24.91
2022-08-21T07:02:02.466Z,24.90
2022-08-21T07:04:31.666Z,24.38
2022-08-21T07:07:00.959Z,24.30
2022-08-21T07:09:30.257Z,24.44
2022-08-21T07:11:59.606Z,24.44
2022-08-21T07:14:30.434Z,24.22
2022-08-21T07:16:59.565Z,24.21
2022-08-21T07:19:28.695Z,24.00
2022-08-21T07:22:02.165Z,23.71
2022-08-21T07:24:31.869Z,23.86
2022-08-21T07:27:01.347Z,23.85
2022-08-21T07:29:32.925Z,24.20
2022-08-21T07:32:02.319Z,24.04
2022-08-21T07:34:31.310Z,24.05
2022-08-21T07:37:00.679Z,23.94
2022-08-21T07:39:37.842Z,23.85
2022-08-21T07:42:08.547Z,23.85
2022-08-21T07:44:39.204Z,23.99
2022-08-21T07:47:08.647Z,24.14
2022-08-21T07:49:37.680Z,24.19
2022-08-21T07:52:07.040Z,24.11
2022-08-21T07:54:36.649Z,24.23
2022-08-21T07:57:06.246Z,24.41
2022-08-21T07:59:35.379Z,24.43
2022-08-21T08:02:06.070Z,24.63
2022-08-21T08:04:35.550Z,24.95
2022-08-21T08:07:04.906Z,25.16
2022-08-21T08:09:34.860Z,25.36
2022-08-21T08:12:05.240Z,25.48
2022-08-21T08:14:34.947Z,25.75
2022-08-21T08:17:06.196Z,25.72
2022-08-21T08:19:35.718Z,25.71
2022-08-21T08:22:14.553Z,25.39
2022-08-21T08:24:44.840Z,25.72
2022-08-21T08:27:14.198Z,25.21
2022-08-21T08:29:43.644Z,25.38
2022-08-21T08:32:14.494Z,25.40
2022-08-21T08:34:45.528Z,25.47
2022-08-21T08:37:15.325Z,25.49
2022-08-21T08:39:45.758Z,25.87
2022-08-21T08:42:33.778Z,26.09
2022-08-21T08:45:09.393Z,26.20
2022-08-21T08:47:44.260Z,26.48
2022-08-21T08:50:19.353Z,26.41
2022-08-21T08:52:54.596Z,26.41
2022-08-21T08:55:28.471Z,26.26
2022-08-21T08:57:58.966Z,26.18
2022-08-21T09:00:30.450Z,26.06
2022-08-21T09:03:04.121Z,25.87
2022-08-21T09:05:44.756Z,25.71
2022-08-21T09:08:32.751Z,26.05
2022-08-21T09:11:05.755Z,26.11
2022-08-21T09:13:50.525Z,26.14
2022-08-21T09:16:32.216Z,25.91
2022-08-21T09:19:13.666Z,26.00
2022-08-21T09:21:54.122Z,25.67
2022-08-21T09:24:35.859Z,25.81
2022-08-21T09:27:10.055Z,25.83
2022-08-21T09:29:42.250Z,25.52
2022-08-21T09:32:18.852Z,25.12
2022-08-21T09:35:01.791Z,25.65
2022-08-21T09:37:50.054Z,25.53
2022-08-21T09:40:32.418Z,25.64
2022-08-21T09:43:05.155Z,25.84
2022-08-21T09:45:37.031Z,25.86
2022-08-21T09:48:14.701Z,26.16
2022-08-21T09:50:47.662Z,26.20
2022-08-21T09:53:23.149Z,26.42
2022-08-21T09:56:14.435Z,26.27
2022-08-21T09:58:46.852Z,26.16
2022-08-21T10:01:18.764Z,25.95
2022-08-21T10:04:03.631Z,25.26
2022-08-21T10:06:35.909Z,25.45
2022-08-21T10:09:08.373Z,25.65
2022-08-21T10:11:39.340Z,25.81
2022-08-21T10:14:19.977Z,25.72
2022-08-21T10:17:00.478Z,25.81
2022-08-21T10:19:38.274Z,26.00
2022-08-21T10:22:22.098Z,26.37
2022-08-21T10:25:00.201Z,26.15
2022-08-21T10:27:42.422Z,25.84
2022-08-21T10:30:21.052Z,25.82
2022-08-21T10:33:05.060Z,25.54
2022-08-21T10:35:39.329Z,25.58
2022-08-21T10:38:58.620Z,25.45
2022-08-21T10:41:49.937Z,25.61
2022-08-21T10:44:28.216Z,25.60
2022-08-21T10:47:04.260Z,25.28
2022-08-21T10:49:45.917Z,25.10
2022-08-21T10:52:36.785Z,25.38
2022-08-21T10:55:11.988Z,25.49
2022-08-21T10:57:50.163Z,25.61
2022-08-21T11:00:22.929Z,25.33
2022-08-21T11:02:58.816Z,24.98
2022-08-21T11:05:35.381Z,24.95
2022-08-21T11:08:09.692Z,25.03
2022-08-21T11:10:58.081Z,25.06
2022-08-21T11:13:38.696Z,25.19
2022-08-21T11:16:19.371Z,25.40
2022-08-21T11:18:55.158Z,24.97
2022-08-21T11:21:40.720Z,24.72
2022-08-21T11:24:24.585Z,24.75
2022-08-21T11:26:59.697Z,24.59
2022-08-21T11:29:33.964Z,24.60
2022-08-21T11:32:30.222Z,24.66
2022-08-21T11:35:04.962Z,24.87
2022-08-21T11:37:51.403Z,24.97
2022-08-21T11:40:40.144Z,24.96
2022-08-21T11:43:19.041Z,25.01
2022-08-21T11:45:53.955Z,24.48
2022-08-21T11:48:31.468Z,24.58
2022-08-21T11:51:02.842Z,24.37
2022-08-21T11:53:38.298Z,24.66
2022-08-21T11:56:14.245Z,24.72
2022-08-21T11:58:47.417Z,24.73
2022-08-21T12:01:23.057Z,24.88
2022-08-21T12:03:59.257Z,24.93
2022-08-21T12:06:33.691Z,24.68
2022-08-21T12:09:05.507Z,24.78
2022-08-21T12:11:47.945Z,24.80
2022-08-21T12:14:19.306Z,25.12
2022-08-21T12:16:52.267Z,25.11
2022-08-21T12:19:33.005Z,24.91
2022-08-21T12:22:11.717Z,25.04
2022-08-21T12:24:43.480Z,24.93
2022-08-21T12:27:27.431Z,24.92
2022-08-21T12:30:00.739Z,24.82
2022-08-21T12:32:56.913Z,24.87
2022-08-21T12:35:33.421Z,24.71
2022-08-21T12:38:09.682Z,24.87
2022-08-21T12:40:43.952Z,24.81
2022-08-21T12:43:20.378Z,24.53
2022-08-21T12:45:52.001Z,24.91
2022-08-21T12:48:28.337Z,24.69
2022-08-21T12:51:01.553Z,24.56
2022-08-21T12:53:34.622Z,24.40
2022-08-21T12:56:05.453Z,24.36
2022-08-21T12:58:35.114Z,24.25
2022-08-21T13:01:07.641Z,24.41
2022-08-21T13:03:40.348Z,24.20
2022-08-21T13:06:16.202Z,24.40
2022-08-21T13:08:49.329Z,24.46
2022-08-21T13:11:32.752Z,24.54
2022-08-21T13:14:07.082Z,24.72
2022-08-21T13:16:37.226Z,24.41
2022-08-21T13:19:09.989Z,24.66
2022-08-21T13:21:44.008Z,24.37
2022-08-21T13:24:42.188Z,24.20
2022-08-21T13:27:23.379Z,23.76
2022-08-21T13:30:04.615Z,24.17
2022-08-21T13:32:39.914Z,24.08
2022-08-21T13:35:17.953Z,24.28
2022-08-21T13:37:58.380Z,23.97
2022-08-21T13:40:31.708Z,23.60
2022-08-21T13:43:02.560Z,23.41
2022-08-21T13:45:34.820Z,23.12
2022-08-21T13:48:06.852Z,23.37
2022-08-21T13:50:40.318Z,23.33
2022-08-21T13:53:24.144Z,23.28
2022-08-21T13:55:57.399Z,23.34
2022-08-21T13:58:32.866Z,23.42
2022-08-21T14:01:05.050Z,23.42
2022-08-21T14:03:43.879Z,23.41
2022-08-21T14:06:19.692Z,23.82
2022-08-21T14:08:54.377Z,23.89
2022-08-21T14:11:24.549Z,23.73
2022-08-21T14:14:00.432Z,23.78
2022-08-21T14:16:42.747Z,22.87
2022-08-21T14:19:21.465Z,22.58
2022-08-21T14:21:53.155Z,22.90
2022-08-21T14:24:29.861Z,22.73
2022-08-21T14:27:04.338Z,22.51
2022-08-21T14:29:38.484Z,22.70
2022-08-21T14:32:21.990Z,22.83
2022-08-21T14:34:55.488Z,22.85
2022-08-21T14:37:30.136Z,22.77
2022-08-21T14:39:59.537Z,22.95
2022-08-21T14:42:29.130Z,23.07
2022-08-21T14:45:03.398Z,23.12
2022-08-21T14:47:38.479Z,23.21
2022-08-21T14:50:08.571Z,22.97
2022-08-21T14:52:41.353Z,22.88
2022-08-21T14:55:14.938Z,23.04
2022-08-21T14:57:46.762Z,23.15
2022-08-21T15:00:18.933Z,22.82
2022-08-21T15:02:50.417Z,22.82
2022-08-21T15:05:31.639Z,22.79
2022-08-21T15:08:05.328Z,22.39
2022-08-21T15:10:48.158Z,22.43
2022-08-21T15:13:26.296Z,22.79
2022-08-21T15:15:56.951Z,22.78
2022-08-21T15:18:31.475Z,22.64
2022-08-21T15:21:00.623Z,22.87
2022-08-21T15:23:31.140Z,22.63
2022-08-21T15:26:00.661Z,22.80
2022-08-21T15:28:32.271Z,22.80
2022-08-21T15:31:02.967Z,22.63
2022-08-21T15:33:32.820Z,22.73
2022-08-21T15:36:01.809Z,22.59
2022-08-21T15:38:32.181Z,22.47
2022-08-21T15:41:01.562Z,22.69
2022-08-21T15:43:34.880Z,22.74
2022-08-21T15:46:06.121Z,22.79
2022-08-21T15:48:35.590Z,22.43
2022-08-21T15:51:04.869Z,22.15
2022-08-21T15:53:39.670Z,22.37
2022-08-21T15:56:14.593Z,22.48
2022-08-21T15:58:45.343Z,22.63
2022-08-21T16:01:14.712Z,22.42
2022-08-21T16:03:45.947Z,22.39
2022-08-21T16:06:15.369Z,22.35
2022-08-21T16:08:46.156Z,22.41
2022-08-21T16:11:18.239Z,22.34
2022-08-21T16:13:52.843Z,22.36
2022-08-21T16:16:27.277Z,22.30
2022-08-21T16:18:57.034Z,22.23
2022-08-21T16:21:26.180Z,22.05
2022-08-21T16:23:56.611Z,22.28
2022-08-21T16:26:26.020Z,22.24
2022-08-21T16:28:58.288Z,22.25
2022-08-21T16:31:28.035Z,21.97
2022-08-21T16:34:00.253Z,22.34
2022-08-21T16:36:29.796Z,22.27
2022-08-21T16:39:02.138Z,22.20
2022-08-21T16:41:35.221Z,22.16
2022-08-21T16:44:06.126Z,22.26
2022-08-21T16:46:39.856Z,22.28
2022-08-21T16:49:10.183Z,22.01
2022-08-21T16:51:39.799Z,22.11
2022-08-21T16:54:10.588Z,22.17
2022-08-21T16:56:43.592Z,22.34
2022-08-21T16:59:17.371Z,22.20
2022-08-21T17:01:47.713Z,21.99
2022-08-21T17:04:17.654Z,22.06
2022-08-21T17:06:47.016Z,22.38
2022-08-21T17:09:17.787Z,22.22
2022-08-21T17:11:49.857Z,21.98
2022-08-21T17:14:23.830Z,21.91
2022-08-21T17:16:56.730Z,21.99
2022-08-21T17:19:28.026Z,22.12
2022-08-21T17:21:57.460Z,22.11
2022-08-21T17:24:29.451Z,22.08
2022-08-21T17:27:00.695Z,21.93
2022-08-21T17:29:32.776Z,21.71
2022-08-21T17:32:03.884Z,21.65
2022-08-21T17:34:33.840Z,21.83
2022-08-21T17:37:03.846Z,21.93
2022-08-21T17:39:36.455Z,22.05
2022-08-21T17:42:10.390Z,22.04
2022-08-21T17:44:42.874Z,21.84
2022-08-21T17:47:13.439Z,22.08
2022-08-21T17:49:43.071Z,22.01
2022-08-21T17:52:12.477Z,22.03
2022-08-21T17:54:43.589Z,21.89
2022-08-21T17:57:20.204Z,21.84
2022-08-21T17:59:57.685Z,21.91
2022-08-21T18:02:27.857Z,22.08
2022-08-21T18:04:57.961Z,22.07
2022-08-21T18:07:32.627Z,22.07
2022-08-21T18:10:08.086Z,22.14
2022-08-21T18:12:39.480Z,22.11
2022-08-21T18:15:14.787Z,22.05
2022-08-21T18:17:52.147Z,22.13
2022-08-21T18:20:24.987Z,22.09
2022-08-21T18:22:54.337Z,22.04
2022-08-21T18:25:25.440Z,22.09
2022-08-21T18:27:55.083Z,21.91
2022-08-21T18:30:28.366Z,22.12
2022-08-21T18:33:00.215Z,22.33
2022-08-21T18:35:32.960Z,22.09
2022-08-21T18:38:05.041Z,21.99
2022-08-21T18:40:40.454Z,21.95
2022-08-21T18:43:15.540Z,21.85
2022-08-21T18:45:45.759Z,21.90
2022-08-21T18:48:17.800Z,22.01
2022-08-21T18:50:49.092Z,21.71
2022-08-21T18:53:27.348Z,21.77
2022-08-21T18:58:52.144Z,21.47
2022-08-21T19:01:22.097Z,21.58
2022-08-21T19:03:53.996Z,21.75
2022-08-21T19:06:24.455Z,21.66
2022-08-21T19:08:56.078Z,21.72
2022-08-21T19:11:29.654Z,21.45
2022-08-21T19:14:00.934Z,21.53
2022-08-21T19:16:31.866Z,21.64
2022-08-21T19:19:02.963Z,21.60
2022-08-21T19:21:35.449Z,21.61
2022-08-21T19:26:59.223Z,21.82
2022-08-21T19:29:35.185Z,21.61
2022-08-21T19:32:07.564Z,21.42
2022-08-21T19:34:40.309Z,21.56
2022-08-21T19:37:12.508Z,21.47
2022-08-21T19:39:48.688Z,21.56
2022-08-21T19:42:28.673Z,21.56
2022-08-21T19:45:00.297Z,21.46
2022-08-21T19:47:34.731Z,21.57
2022-08-21T19:50:17.558Z,21.56
2022-08-21T19:52:51.694Z,21.55
2022-08-21T19:55:23.348Z,21.45
2022-08-21T19:57:57.927Z,21.23
2022-08-21T20:00:27.277Z,21.12
2022-08-21T20:02:57.217Z,20.83
2022-08-21T20:05:26.247Z,20.89
2022-08-21T20:08:11.778Z,20.83
2022-08-21T20:10:50.287Z,20.84
2022-08-21T20:13:24.114Z,20.91
2022-08-21T20:15:54.030Z,20.68
2022-08-21T20:18:26.914Z,20.78
2022-08-21T20:20:56.690Z,20.55
2022-08-21T20:26:18.540Z,20.74
2022-08-21T20:31:39.128Z,20.53
2022-08-21T20:34:10.131Z,20.54
2022-08-21T20:36:39.552Z,20.58
2022-08-21T20:39:12.875Z,20.60
2022-08-21T20:41:44.785Z,20.56
2022-08-21T20:44:19.092Z,20.53
2022-08-21T20:46:48.709Z,20.56
2022-08-21T20:49:26.886Z,20.62
2022-08-21T20:51:57.917Z,20.63
2022-08-21T20:54:33.622Z,20.51
2022-08-21T20:57:13.894Z,20.46
2022-08-21T20:59:51.561Z,20.62
2022-08-21T21:02:37.243Z,20.75
2022-08-21T21:05:12.265Z,20.84
2022-08-21T21:07:54.289Z,20.83
2022-08-21T21:10:31.047Z,20.76
2022-08-21T21:13:11.009Z,20.78
2022-08-21T21:15:44.705Z,20.73
2022-08-21T21:18:19.052Z,20.80
2022-08-21T21:20:53.692Z,20.61
2022-08-21T21:23:27.117Z,20.62
2022-08-21T21:26:03.744Z,20.79
2022-08-21T21:28:48.351Z,20.85
2022-08-21T21:31:19.311Z,20.93
2022-08-21T21:33:49.018Z,21.02
2022-08-21T21:36:29.532Z,21.01
2022-08-21T21:39:10.378Z,20.98
2022-08-21T21:41:47.433Z,20.75
2022-08-21T21:44:45.347Z,20.76
2022-08-21T21:47:29.335Z,20.81
2022-08-21T21:50:20.806Z,20.85
2022-08-21T21:56:10.317Z,20.67
2022-08-21T21:58:52.541Z,20.77
2022-08-21T22:01:30.438Z,20.76
2022-08-21T22:04:04.755Z,20.67
2022-08-21T22:06:43.557Z,20.82
2022-08-21T22:09:19.694Z,20.97
2022-08-21T22:12:07.507Z,20.86
2022-08-21T22:14:40.873Z,20.98
2022-08-21T22:17:20.497Z,20.82
2022-08-21T22:19:57.564Z,20.80
2022-08-21T22:22:30.336Z,20.98
2022-08-21T22:25:07.389Z,21.00
2022-08-21T22:27:40.958Z,20.99
2022-08-21T22:30:15.689Z,21.03
2022-08-21T22:32:50.338Z,21.05
2022-08-21T22:35:28.052Z,21.11
2022-08-21T22:38:02.503Z,21.12
2022-08-21T22:40:35.347Z,21.10
2022-08-21T22:43:07.454Z,21.05
2022-08-21T22:45:57.175Z,21.04
2022-08-21T22:48:28.894Z,21.06
2022-08-21T22:51:06.738Z,21.11
2022-08-21T22:53:40.950Z,20.82
2022-08-21T22:56:26.998Z,20.71
2022-08-21T22:58:58.738Z,20.67
2022-08-21T23:01:40.619Z,20.86
2022-08-21T23:04:24.183Z,20.91
2022-08-21T23:07:00.291Z,21.00
2022-08-21T23:09:36.879Z,20.79
2022-08-21T23:12:34.005Z,20.75
2022-08-21T23:18:13.803Z,20.79
2022-08-21T23:20:56.202Z,20.72
2022-08-21T23:24:19.248Z,20.90
2022-08-21T23:27:08.245Z,20.86
2022-08-21T23:29:47.888Z,20.81
2022-08-21T23:32:54.390Z,20.78
2022-08-21T23:35:48.612Z,20.98
2022-08-21T23:38:32.614Z,20.98
2022-08-21T23:41:14.979Z,21.20
2022-08-21T23:43:57.577Z,21.11
2022-08-21T23:46:45.842Z,20.93
2022-08-21T23:49:30.615Z,20.87
2022-08-21T23:52:15.137Z,20.79
2022-08-21T23:54:58.151Z,20.69
2022-08-21T23:57:42.010Z,20.66
